Airfield :
LOGIN :

Register | Disclaimer

   EN    FR    IT 

 










Legend :    VFR   Marginal VFR   IFR   Intensive IFR   Very Intensive IFR
Visi :
Ceiling :
>= 8 km
>= 3000ft
5 to 8 km
1000 to 3000 ft
1500m to 5 km
500 to 1000 ft
800 to 1500m
200 to 500 ft
< 800m
< 200 ft
Symbols :   Thunderstorms  Fog  Heavy snow  Heavy precipitations  Wind > 20 kt
SIGMETs :     Misc.  Thunderstorms  Icing  Turbulence  Mountain Waves  Volcanic Ashes







- Airport Elevation : 82 ft
- IATA code : QIE
- Download approach charts


LFMI - Istres

CURRENT METAR :
  • 262130Z AUTO 09002KT CAVOK 17/12 Q1021 NOSIG

EXPIRED METARs :
  • 262100Z AUTO 00000KT CAVOK 17/12 Q1021 NOSIG
  • 262030Z AUTO 00000KT CAVOK 18/12 Q1021 NOSIG
  • 262000Z AUTO 00000KT CAVOK 19/12 Q1021 NOSIG
  • 261930Z AUTO 22002KT CAVOK 19/12 Q1021 NOSIG
  • 261900Z AUTO 19002KT CAVOK 20/12 Q1021 NOSIG

TAF TAF LFMI
Valid from the 26 at 21:00 until the 27 at 21:00 UTC


262000Z 2621/2721 VRB02KT CAVOK
TEMPO 2711/2718 20012KT
No reported NOTAMs for that airfield.



MET'MAP, your aeronautical weather chart ! - Copyright ORBIFLY December 2007 - Disclaimer

ORBIFLY MET'MAP TEAM :

Programming & Development : Alexandra Zaïnal
Concept & Development : Baudouin d'Aumeries
Co-Development & Prog : Marc-Olivier Méhu
Technical & hardware support : Manuel Goepfert

Contact : metmap@orbifly.com




SOURCES & CREDITS :

   NOAA